createdAt,value
2019-04-06T00:01:48.062Z,17.15
2019-04-06T00:06:51.399Z,19.73
2019-04-06T00:11:54.448Z,17.25
2019-04-06T00:16:57.616Z,17.10
2019-04-06T00:22:00.734Z,16.07
2019-04-06T00:27:03.914Z,16.23
2019-04-06T00:32:25.802Z,17.73
2019-04-06T00:37:28.899Z,17.73
2019-04-06T00:42:31.951Z,14.98
2019-04-06T00:47:35.312Z,14.63
2019-04-06T00:52:38.435Z,16.57
2019-04-06T00:57:41.610Z,15.45
2019-04-06T01:02:44.739Z,16.90
2019-04-06T01:07:48.251Z,17.02
2019-04-06T01:12:51.474Z,15.68
2019-04-06T01:17:54.432Z,16.63
2019-04-06T01:22:57.417Z,15.88
2019-04-06T01:28:00.517Z,15.07
2019-04-06T01:33:03.808Z,15.03
2019-04-06T01:38:06.906Z,13.18
2019-04-06T01:43:10.139Z,16.27
2019-04-06T01:48:13.239Z,15.35
2019-04-06T01:53:16.303Z,15.55
2019-04-06T01:58:19.448Z,15.38
2019-04-06T02:03:22.603Z,14.47
2019-04-06T02:08:25.608Z,12.60
2019-04-06T02:13:28.774Z,13.28
2019-04-06T02:18:31.965Z,12.93
2019-04-06T02:23:35.177Z,15.28
2019-04-06T02:28:38.535Z,12.78
2019-04-06T02:34:16.189Z,13.35
2019-04-06T02:39:32.795Z,11.60
2019-04-06T02:49:38.372Z,10.32
2019-04-06T02:54:41.637Z,12.00
2019-04-06T02:59:44.707Z,9.80
2019-04-06T03:04:47.807Z,11.35
2019-04-06T03:09:51.092Z,10.68
2019-04-06T03:14:54.193Z,10.60
2019-04-06T03:19:57.139Z,9.90
2019-04-06T03:25:00.324Z,9.80
2019-04-06T03:30:04.938Z,12.95
2019-04-06T03:35:08.460Z,9.93
2019-04-06T03:40:12.217Z,10.18
2019-04-06T03:45:16.045Z,10.48
2019-04-06T03:50:19.233Z,10.65
2019-04-06T03:55:22.556Z,11.43
2019-04-06T04:00:25.909Z,12.03
2019-04-06T04:05:29.077Z,10.18
2019-04-06T04:10:34.746Z,9.15
2019-04-06T04:15:38.147Z,10.60
2019-04-06T04:20:41.198Z,9.23
2019-04-06T04:25:44.537Z,10.45
2019-04-06T04:30:47.675Z,10.50
2019-04-06T04:35:50.764Z,9.23
2019-04-06T04:40:53.906Z,9.50
2019-04-06T04:45:57.104Z,11.05
2019-04-06T04:51:00.235Z,10.35
2019-04-06T04:56:03.475Z,8.83
2019-04-06T05:01:06.444Z,10.10
2019-04-06T05:06:09.575Z,10.70
2019-04-06T05:11:12.644Z,9.45
2019-04-06T05:16:18.396Z,7.80
2019-04-06T05:21:21.363Z,8.93
2019-04-06T05:26:24.518Z,11.00
2019-04-06T05:31:27.656Z,8.23
2019-04-06T05:36:31.048Z,10.70
2019-04-06T05:41:34.153Z,11.00
2019-04-06T05:46:37.233Z,10.58
2019-04-06T05:51:40.194Z,10.88
2019-04-06T05:56:43.288Z,9.53
2019-04-06T06:01:48.467Z,11.10
2019-04-06T06:06:51.824Z,10.20
2019-04-06T06:11:55.934Z,10.25
2019-04-06T06:16:59.192Z,9.95
2019-04-06T06:22:02.293Z,10.53
2019-04-06T06:27:05.516Z,8.95
2019-04-06T06:32:08.640Z,10.32
2019-04-06T06:37:11.839Z,10.88
2019-04-06T06:42:14.809Z,10.03
2019-04-06T06:47:17.998Z,12.05
2019-04-06T06:52:20.940Z,11.25
2019-04-06T06:57:24.284Z,10.05
2019-04-06T07:02:27.604Z,11.12
2019-04-06T07:07:30.888Z,11.43
2019-04-06T07:12:34.071Z,10.80
2019-04-06T07:17:37.206Z,10.87
2019-04-06T07:22:40.245Z,12.37
2019-04-06T07:27:43.432Z,10.82
2019-04-06T07:32:46.875Z,11.78
2019-04-06T07:37:49.883Z,10.72
2019-04-06T07:42:53.449Z,11.30
2019-04-06T07:47:56.697Z,11.68
2019-04-06T07:52:59.766Z,11.90
2019-04-06T07:58:02.927Z,12.00
2019-04-06T08:03:06.315Z,12.28
2019-04-06T08:08:09.797Z,11.83
2019-04-06T08:13:12.954Z,11.25
2019-04-06T08:18:15.947Z,12.10
2019-04-06T08:23:19.763Z,12.50
2019-04-06T08:28:23.512Z,11.65
2019-04-06T08:33:28.108Z,11.93
2019-04-06T08:38:31.486Z,11.88
2019-04-06T08:43:34.440Z,11.50
2019-04-06T08:48:37.549Z,13.50
2019-04-06T08:53:40.899Z,12.20
2019-04-06T08:58:44.188Z,12.35
2019-04-06T09:03:47.296Z,14.15
2019-04-06T09:08:51.105Z,12.70
2019-04-06T09:13:54.271Z,12.93
2019-04-06T09:18:57.527Z,13.43
2019-04-06T09:24:01.155Z,12.35
2019-04-06T09:29:04.305Z,12.28
2019-04-06T09:34:07.819Z,14.87
2019-04-06T09:39:11.647Z,12.60
2019-04-06T09:44:24.409Z,12.35
2019-04-06T09:49:59.204Z,12.47
2019-04-06T09:55:21.972Z,13.32
2019-04-06T10:00:35.322Z,14.00
2019-04-06T10:05:56.961Z,13.10
2019-04-06T10:11:22.548Z,14.47
2019-04-06T10:16:37.650Z,13.88
2019-04-06T10:22:09.044Z,12.35
2019-04-06T10:27:30.680Z,12.45
2019-04-06T10:32:52.088Z,13.62
2019-04-06T10:38:03.896Z,13.53
2019-04-06T10:43:20.954Z,12.63
2019-04-06T10:48:46.290Z,13.45
2019-04-06T10:53:57.348Z,12.98
2019-04-06T10:59:19.357Z,13.72
2019-04-06T11:04:48.267Z,13.68
2019-04-06T11:10:09.290Z,13.85
2019-04-06T11:15:31.048Z,12.23
2019-04-06T11:20:44.880Z,13.78
2019-04-06T11:26:10.750Z,12.73
2019-04-06T11:31:34.992Z,14.77
2019-04-06T11:36:57.769Z,14.05
2019-04-06T11:42:23.803Z,13.68
2019-04-06T11:47:38.495Z,13.05
2019-04-06T11:53:07.063Z,13.40
2019-04-06T11:58:17.992Z,14.03
2019-04-06T12:03:26.875Z,14.87
2019-04-06T12:08:55.530Z,14.43
2019-04-06T12:14:21.288Z,15.93
2019-04-06T12:19:52.844Z,17.25
2019-04-06T12:25:18.261Z,16.60
2019-04-06T12:30:37.726Z,15.55
2019-04-06T12:36:09.434Z,15.10
2019-04-06T12:41:37.777Z,16.12
2019-04-06T12:47:00.535Z,16.45
2019-04-06T12:52:23.698Z,17.52
2019-04-06T12:57:46.383Z,19.67
2019-04-06T13:03:21.064Z,18.23
2019-04-06T13:08:33.705Z,20.88
2019-04-06T13:14:02.224Z,20.37
2019-04-06T13:19:27.714Z,17.15
2019-04-06T13:24:49.740Z,19.87
2019-04-06T13:30:12.314Z,20.27
2019-04-06T13:35:33.825Z,17.00
2019-04-06T13:40:54.260Z,20.15
2019-04-06T13:46:15.885Z,19.73
2019-04-06T13:51:38.599Z,19.25
2019-04-06T13:57:07.459Z,20.52
2019-04-06T14:02:28.621Z,18.52
2019-04-06T14:07:54.457Z,19.30
2019-04-06T14:13:29.232Z,20.20
2019-04-06T14:18:47.669Z,19.12
2019-04-06T14:24:28.500Z,20.27
2019-04-06T14:30:00.424Z,20.68
2019-04-06T14:35:10.332Z,19.92
2019-04-06T14:40:31.929Z,20.27
2019-04-06T14:45:55.184Z,21.10
2019-04-06T14:51:17.658Z,23.90
2019-04-06T14:56:36.156Z,20.95
2019-04-06T15:02:01.463Z,19.67
2019-04-06T15:07:13.711Z,18.90
2019-04-06T15:12:36.250Z,19.00
2019-04-06T15:17:54.893Z,20.20
2019-04-06T15:23:27.237Z,17.80
2019-04-06T15:28:48.621Z,23.38
2019-04-06T15:34:11.321Z,22.55
2019-04-06T15:39:40.075Z,20.82
2019-04-06T15:45:02.642Z,19.62
2019-04-06T15:50:24.490Z,22.13
2019-04-06T15:55:40.605Z,16.62
2019-04-06T16:01:12.153Z,18.67
2019-04-06T16:06:24.219Z,17.98
2019-04-06T16:11:52.294Z,17.40
2019-04-06T16:17:18.028Z,18.85
2019-04-06T16:22:30.561Z,18.98
2019-04-06T16:27:56.045Z,18.32
2019-04-06T16:33:09.111Z,18.35
2019-04-06T16:38:41.139Z,18.07
2019-04-06T16:44:02.326Z,14.60
2019-04-06T16:49:25.255Z,14.98
2019-04-06T16:54:59.979Z,14.87
2019-04-06T17:00:24.040Z,14.05
2019-04-06T17:05:36.629Z,12.43
2019-04-06T17:10:47.981Z,10.55
2019-04-06T17:16:05.695Z,9.20
2019-04-06T17:21:20.293Z,12.98
2019-04-06T17:26:49.226Z,12.63
2019-04-06T17:32:12.159Z,14.93
2019-04-06T17:37:40.476Z,12.40
2019-04-06T17:42:59.503Z,14.05
2019-04-06T17:48:35.004Z,14.45
2019-04-06T17:53:59.607Z,15.03
2019-04-06T17:59:21.163Z,18.17
2019-04-06T18:04:46.967Z,18.10
2019-04-06T18:10:00.412Z,16.45
2019-04-06T18:15:04.254Z,15.45
2019-04-06T18:20:08.556Z,19.75
2019-04-06T18:25:12.240Z,15.68
2019-04-06T18:30:16.870Z,17.12
2019-04-06T18:35:20.013Z,15.43
2019-04-06T18:40:25.887Z,14.55
2019-04-06T18:45:31.377Z,16.57
2019-04-06T18:50:38.313Z,17.00
2019-04-06T18:55:39.393Z,16.77
2019-04-06T19:00:42.385Z,19.52
2019-04-06T19:05:45.719Z,21.82
2019-04-06T19:10:48.691Z,20.68
2019-04-06T19:15:51.917Z,17.85
2019-04-06T19:20:54.973Z,18.67
2019-04-06T19:25:57.982Z,17.87
2019-04-06T19:31:00.987Z,20.40
2019-04-06T19:36:04.361Z,13.50
2019-04-06T19:41:07.499Z,11.25
2019-04-06T19:46:11.196Z,12.63
2019-04-06T19:51:14.883Z,11.30
2019-04-06T19:56:18.183Z,11.08
2019-04-06T20:01:21.302Z,9.65
2019-04-06T20:06:24.860Z,7.80
2019-04-06T20:11:28.089Z,8.08
2019-04-06T20:16:31.107Z,7.83
2019-04-06T20:21:34.665Z,6.90
2019-04-06T20:26:38.543Z,6.03
2019-04-06T20:31:41.809Z,5.47
2019-04-06T20:36:45.157Z,5.22
2019-04-06T20:41:48.665Z,4.60
2019-04-06T20:46:51.763Z,4.85
2019-04-06T20:51:55.002Z,4.55
2019-04-06T20:56:59.087Z,4.67
2019-04-06T21:02:02.850Z,4.60
2019-04-06T21:07:06.639Z,5.70
2019-04-06T21:12:09.702Z,5.30
2019-04-06T21:17:12.752Z,6.12
2019-04-06T21:22:16.175Z,6.70
2019-04-06T21:27:19.720Z,7.90
2019-04-06T21:32:23.110Z,7.85
2019-04-06T21:37:26.371Z,7.17
2019-04-06T21:42:29.616Z,7.93
2019-04-06T21:47:33.989Z,8.38
2019-04-06T21:52:37.378Z,8.45
2019-04-06T21:57:40.501Z,8.08
2019-04-06T22:02:43.754Z,8.13
2019-04-06T22:07:50.796Z,8.73
2019-04-06T22:12:52.426Z,8.58
2019-04-06T22:17:55.703Z,8.50
2019-04-06T22:22:58.842Z,7.47
2019-04-06T22:28:01.956Z,8.25
2019-04-06T22:33:05.101Z,8.15
2019-04-06T22:38:08.203Z,8.10
2019-04-06T22:43:11.276Z,8.43
2019-04-06T22:48:14.729Z,9.30
2019-04-06T22:53:17.693Z,8.00
2019-04-06T22:58:20.915Z,6.87
2019-04-06T23:03:43.543Z,7.42
2019-04-06T23:08:46.594Z,6.97
2019-04-06T23:13:49.521Z,6.97
2019-04-06T23:18:52.626Z,6.17
2019-04-06T23:23:55.670Z,5.60
2019-04-06T23:28:58.784Z,6.92
2019-04-06T23:34:02.150Z,7.20
2019-04-06T23:39:07.041Z,6.90
2019-04-06T23:44:10.059Z,6.10
2019-04-06T23:49:13.354Z,6.60
2019-04-06T23:54:16.820Z,6.55
2019-04-06T23:59:19.998Z,6.00
